الصفحة الرئيسية
METAR-TAF:

METAR-TAF

مطار :

مطار توزر نفطة الدولي

توزر, تونس

دائرة عرض: 33-55N, خط طول: 008-06E, ارتفاع: 87 متر

مراقبة الطقس الحالي

تاريخ ووقت الإصدار 1ساعة و 18 دقيقة قبل الساعة 18:00UTC
ريح 5 عقدة من الشمال/الشمال الشرقي
درجة الحرارة 16°درجة مئوية
الرطوبة 45%
ضغط 1022 hPa
الرؤية 10 كم أو أكثر
غيوم متفرقة على ارتفاع 3300 قدم

METAR: DTTZ 211800Z 03005KT 9999 SCT033 16/04 Q1022

زمن: 20:18 (19:18 UTC)

توقعات

تاريخ ووقت الإصدار 2ساعات و 18 دقيقة قبل الساعة 17:00UTC
التوقعات صالحة من21 الساعة 18 UTC إلى 22 الساعة 18 UTC
ريح 16 عقدة من الشمال
الرؤية 10 كم أو أكثر
غيوم متفرقة على ارتفاع 3300 قدم
أصبح
من 21 الساعة 18 UTC إلى 21 الساعة 20 UTC
ريح 10 عقدة من الشرق
أصبح
من 21 الساعة 22 UTC إلى 21 الساعة 24 UTC
ريح 2 عقدةمن اتجاهات متغيرة
أصبح
من 22 الساعة 13 UTC إلى 22 الساعة 15 UTC
ريح 10 عقدة من الغرب/الجنوب الغربي

TAF: DTTZ 211700Z 2118/2218 01016KT 9999 SCT033 BECMG 2118/2120 08010KT BECMG 2122/2124 VRB02KT BECMG 2213/2215 24010KT

أرصاد الطقس والتوقعات من أكثر من 4000 مطار (تقارير الطقس للمطار METAR والتنبؤ بالطقس بالمطارTAF).

المحطات المتاحة هي النقط الصفراء والحمراء على الخريطة.

حرك المؤشر فوق النقطة لمعرفة اسم المحطة.

ثم انقر لمعرفة أرصاد وتوقعات الطقس.

لتغيير الخارطة: اضغط على الأزرار الخضراء مع رمز الصليب الأسود للتكبير. على الزر الأخضر مع شرطة للتصغير، أو على الأسهم الخضراء للخرائط المجاورة.


METAR-TAF: